Time;durP1;ratioP1;P1;durP2;ratioP2;P2;SDS_P1;SDS_P2;PMS_P1;PMS_P2;Temp;Humidity;BMP_temperature;BMP_pressure;BME280_temperature;BME280_humidity;BME280_pressure;Samples;Min_cycle;Max_cycle;Signal;HPM_P1;HPM_P2
2022/08/30 03:01:37;;;;;;;11.23;7.72;;;15.10;99.90;;;;;;5409861;23;20056;-83
2022/08/30 03:04:04;;;;;;;14.18;8.65;;;15.00;99.90;;;;;;4884821;29;20040;-84
2022/08/30 03:06:30;;;;;;;10.98;8.07;;;15.00;99.90;;;;;;4911011;29;20066;-84
2022/08/30 03:08:56;;;;;;;15.30;8.70;;;15.00;99.90;;;;;;4889053;29;20047;-84
2022/08/30 03:11:22;;;;;;;10.10;7.88;;;15.00;99.90;;;;;;4891092;29;20059;-84
2022/08/30 03:13:47;;;;;;;10.55;8.00;;;14.90;99.90;;;;;;4866505;29;20122;-84
2022/08/30 03:16:14;;;;;;;12.40;9.63;;;14.90;99.90;;;;;;4881769;29;20033;-83
2022/08/30 03:18:42;;;;;;;12.05;9.18;;;14.80;99.90;;;;;;4881693;29;20461;-84
2022/08/30 03:21:13;;;;;;;9.00;7.30;;;14.80;99.90;;;;;;4866509;29;20036;-84
2022/08/30 03:23:39;;;;;;;10.05;7.85;;;14.80;99.90;;;;;;4882706;29;20104;-84
2022/08/30 03:26:07;;;;;;;11.32;8.70;;;14.70;99.90;;;;;;4902680;29;20140;-83
2022/08/30 03:28:32;;;;;;;11.80;7.68;;;14.80;99.90;;;;;;4885375;29;20044;-83
2022/08/30 03:30:58;;;;;;;16.10;9.95;;;14.70;99.90;;;;;;4885286;29;20048;-84
2022/08/30 03:33:24;;;;;;;11.95;8.20;;;14.60;99.90;;;;;;4902365;29;20040;-83
2022/08/30 03:35:49;;;;;;;11.05;8.13;;;14.60;99.90;;;;;;4885536;29;20045;-84
2022/08/30 03:38:15;;;;;;;14.23;10.35;;;14.60;99.90;;;;;;4902301;29;20426;-84
2022/08/30 03:40:41;;;;;;;9.70;7.63;;;14.60;99.90;;;;;;4885117;29;20099;-83
2022/08/30 03:43:07;;;;;;;12.55;8.13;;;14.60;99.90;;;;;;4885366;29;20048;-83
2022/08/30 03:45:33;;;;;;;10.93;8.05;;;14.50;99.90;;;;;;4885459;29;20045;-84
2022/08/30 03:48:01;;;;;;;11.55;8.90;;;14.50;99.90;;;;;;4885948;29;20045;-83
2022/08/30 03:50:27;;;;;;;12.32;7.90;;;14.50;99.90;;;;;;4884875;29;20085;-82
2022/08/30 03:52:53;;;;;;;10.93;8.10;;;14.50;99.90;;;;;;4869520;29;20511;-83
2022/08/30 03:55:19;;;;;;;12.23;8.77;;;14.50;99.90;;;;;;4884860;29;20056;-83
2022/08/30 03:57:45;;;;;;;11.82;7.75;;;14.50;99.90;;;;;;4885325;29;20048;-82
2022/08/30 04:00:13;;;;;;;11.10;7.63;;;14.40;99.90;;;;;;4884885;29;20063;-85
2022/08/30 04:02:39;;;;;;;12.50;7.45;;;14.40;99.90;;;;;;4870274;29;20135;-84
2022/08/30 04:05:06;;;;;;;12.10;8.25;;;14.40;99.90;;;;;;4901693;29;20177;-84
2022/08/30 04:07:32;;;;;;;12.32;8.57;;;14.40;99.90;;;;;;4884779;29;20052;-86
2022/08/30 04:09:57;;;;;;;12.10;8.15;;;14.40;99.90;;;;;;4902006;29;20049;-86
2022/08/30 04:12:23;;;;;;;13.30;9.07;;;14.40;99.90;;;;;;4883206;29;20048;-85
2022/08/30 04:14:49;;;;;;;12.15;7.20;;;14.40;99.90;;;;;;4883049;29;20048;-83
2022/08/30 04:17:14;;;;;;;10.32;7.15;;;14.40;99.90;;;;;;4869057;29;20192;-85
2022/08/30 04:19:40;;;;;;;14.07;9.10;;;14.30;99.90;;;;;;4884694;29;20044;-85
2022/08/30 04:22:06;;;;;;;14.23;8.07;;;14.30;99.90;;;;;;4884844;29;20041;-86
2022/08/30 04:24:33;;;;;;;10.25;8.00;;;14.30;99.90;;;;;;4901785;29;20477;-85
2022/08/30 04:26:59;;;;;;;10.15;7.25;;;14.30;99.90;;;;;;4884705;29;20531;-84
2022/08/30 04:29:25;;;;;;;11.98;8.02;;;14.20;99.90;;;;;;4884771;29;20052;-85
2022/08/30 04:31:50;;;;;;;14.85;9.40;;;14.20;99.90;;;;;;4884518;29;20048;-85
2022/08/30 04:34:17;;;;;;;14.48;9.40;;;14.20;99.90;;;;;;4884353;29;20053;-84
2022/08/30 04:36:43;;;;;;;16.05;9.70;;;14.20;99.90;;;;;;4883895;29;20051;-84
2022/08/30 04:39:08;;;;;;;12.02;8.00;;;14.20;99.90;;;;;;4884350;29;20057;-84
2022/08/30 04:41:36;;;;;;;11.10;8.20;;;14.10;99.90;;;;;;4868724;29;20044;-84
2022/08/30 04:44:02;;;;;;;11.35;8.57;;;14.10;99.90;;;;;;4884461;29;20067;-85
2022/08/30 04:46:29;;;;;;;11.82;7.93;;;14.10;99.90;;;;;;4884075;29;20129;-84
2022/08/30 04:48:54;;;;;;;10.02;8.25;;;14.00;99.90;;;;;;4901481;29;20048;-85
2022/08/30 04:51:20;;;;;;;10.52;7.93;;;14.10;99.90;;;;;;4900819;29;20064;-84
2022/08/30 04:53:46;;;;;;;10.82;7.88;;;14.00;99.90;;;;;;4883899;29;20048;-85
2022/08/30 04:56:18;;;;;;;9.10;7.05;;;14.00;99.90;;;;;;4883993;29;20445;-85
2022/08/30 04:58:45;;;;;;;13.93;10.18;;;14.00;99.90;;;;;;4884123;29;20161;-85
2022/08/30 05:01:17;;;;;;;8.98;7.93;;;14.00;99.90;;;;;;4884071;29;20436;-85
2022/08/30 05:03:43;;;;;;;9.52;7.57;;;14.00;99.90;;;;;;4868490;29;20096;-83
2022/08/30 05:06:11;;;;;;;11.43;8.27;;;13.90;99.90;;;;;;4884093;29;20048;-84
2022/08/30 05:08:37;;;;;;;10.20;7.57;;;13.90;99.90;;;;;;4884846;29;20051;-84
2022/08/30 05:11:04;;;;;;;13.82;8.68;;;14.00;99.90;;;;;;4884043;29;20049;-85
2022/08/30 05:13:31;;;;;;;12.23;7.88;;;13.90;99.90;;;;;;4884055;29;20053;-84
2022/08/30 05:15:56;;;;;;;11.82;8.02;;;13.90;99.90;;;;;;4883783;29;20114;-86
2022/08/30 05:18:22;;;;;;;10.35;6.70;;;13.90;99.90;;;;;;4900980;29;20049;-86
2022/08/30 05:21:03;;;;;;;10.73;7.07;;;13.90;99.90;;;;;;4884303;29;20123;-88
2022/08/30 05:23:28;;;;;;;10.60;7.00;;;13.90;99.90;;;;;;4901221;29;20032;-83
2022/08/30 05:25:54;;;;;;;11.65;8.30;;;13.90;99.90;;;;;;4883669;29;20116;-85
2022/08/30 05:28:20;;;;;;;16.08;10.18;;;13.90;99.90;;;;;;4904314;29;20418;-85
2022/08/30 05:30:46;;;;;;;8.18;6.85;;;13.90;99.90;;;;;;4902492;29;20076;-85
2022/08/30 05:33:11;;;;;;;12.63;7.75;;;13.90;99.90;;;;;;4902577;29;20473;-84
2022/08/30 05:35:39;;;;;;;9.68;6.68;;;13.90;99.90;;;;;;4902485;29;20043;-85
2022/08/30 05:38:05;;;;;;;14.68;8.65;;;13.90;99.90;;;;;;4919291;29;20496;-84
2022/08/30 05:40:31;;;;;;;12.43;9.13;;;13.80;99.90;;;;;;4902945;29;20048;-84
2022/08/30 05:42:57;;;;;;;11.55;7.90;;;13.90;99.90;;;;;;4902224;29;20044;-84
2022/08/30 05:45:23;;;;;;;9.68;7.32;;;13.80;99.90;;;;;;4919354;29;20036;-84
2022/08/30 05:47:48;;;;;;;12.40;8.98;;;13.80;99.90;;;;;;4918397;29;20040;-84
2022/08/30 05:50:14;;;;;;;12.45;9.45;;;13.80;99.90;;;;;;4902109;29;20040;-83
2022/08/30 05:52:41;;;;;;;9.90;7.85;;;13.80;99.90;;;;;;4902489;29;20076;-84
2022/08/30 05:55:08;;;;;;;11.15;7.32;;;13.80;99.90;;;;;;4919211;29;20051;-84
2022/08/30 05:57:35;;;;;;;10.77;8.57;;;13.80;99.90;;;;;;4901699;29;20079;-83
2022/08/30 06:00:05;;;;;;;11.98;8.80;;;13.80;99.90;;;;;;4902049;29;20040;-85
2022/08/30 06:02:31;;;;;;;15.75;9.20;;;13.80;99.90;;;;;;4918326;29;20500;-84
2022/08/30 06:04:56;;;;;;;10.93;7.25;;;13.80;99.90;;;;;;4901607;29;20071;-85
2022/08/30 06:07:22;;;;;;;11.15;8.55;;;13.80;99.90;;;;;;4901688;29;20127;-84
2022/08/30 06:09:48;;;;;;;10.15;8.20;;;13.80;99.90;;;;;;4902326;29;20040;-84
2022/08/30 06:12:13;;;;;;;10.85;7.85;;;13.80;99.90;;;;;;4901902;29;20071;-85
2022/08/30 06:14:39;;;;;;;12.48;8.82;;;13.80;99.90;;;;;;4919007;29;20032;-84
2022/08/30 06:17:05;;;;;;;10.52;8.90;;;13.80;99.90;;;;;;4901815;29;20048;-84
2022/08/30 06:19:31;;;;;;;13.85;9.63;;;13.80;99.90;;;;;;4918560;29;20504;-83
2022/08/30 06:21:57;;;;;;;10.38;7.68;;;13.90;99.90;;;;;;4901550;29;20047;-86
2022/08/30 06:24:22;;;;;;;11.35;8.18;;;13.90;99.90;;;;;;4901840;29;20397;-83
2022/08/30 06:26:48;;;;;;;11.48;9.15;;;13.90;99.90;;;;;;4918915;29;20039;-85
2022/08/30 06:29:17;;;;;;;12.98;7.97;;;13.90;99.90;;;;;;4918829;29;20040;-87
2022/08/30 06:31:43;;;;;;;12.15;8.20;;;14.00;99.90;;;;;;4918553;29;20460;-83
2022/08/30 06:34:09;;;;;;;10.90;8.25;;;14.00;99.90;;;;;;4901636;29;20059;-83
2022/08/30 06:36:35;;;;;;;15.35;9.48;;;14.00;99.90;;;;;;4901912;29;20392;-84
2022/08/30 06:39:02;;;;;;;18.42;9.90;;;14.10;99.90;;;;;;4919247;29;20036;-84
2022/08/30 06:41:30;;;;;;;11.25;7.88;;;14.10;99.90;;;;;;4901739;29;20044;-83
2022/08/30 06:43:57;;;;;;;11.07;7.75;;;14.20;99.90;;;;;;4910008;29;20048;-82
2022/08/30 06:46:29;;;;;;;10.55;7.38;;;14.30;99.90;;;;;;4915997;29;20044;-79
2022/08/30 06:48:55;;;;;;;14.75;7.05;;;14.30;99.90;;;;;;4925315;29;20068;-84
2022/08/30 06:51:29;;;;;;;12.55;7.22;;;14.40;99.90;;;;;;4903842;29;20055;-83
2022/08/30 06:53:55;;;;;;;15.63;7.40;;;14.40;99.90;;;;;;4902666;29;20440;-82
2022/08/30 06:56:21;;;;;;;11.88;6.38;;;14.40;99.90;;;;;;4918610;29;20036;-84
2022/08/30 06:58:48;;;;;;;15.75;6.78;;;14.50;99.90;;;;;;4885648;29;20448;-84
2022/08/30 07:01:26;;;;;;;11.32;5.57;;;14.60;99.90;;;;;;4901077;29;20484;-83
2022/08/30 07:03:52;;;;;;;10.38;5.60;;;14.60;99.90;;;;;;4901308;29;20461;-82
2022/08/30 07:06:19;;;;;;;8.80;4.90;;;14.60;99.90;;;;;;4882776;29;20177;-83
2022/08/30 07:08:45;;;;;;;11.10;5.88;;;14.70;99.90;;;;;;4879130;29;20105;-84
2022/08/30 07:11:11;;;;;;;6.97;4.45;;;14.70;99.90;;;;;;4863618;29;20128;-82
2022/08/30 07:13:37;;;;;;;7.95;4.90;;;14.80;99.90;;;;;;4863750;29;20128;-82
2022/08/30 07:16:13;;;;;;;7.07;3.60;;;14.90;99.90;;;;;;4863739;29;20052;-83
2022/08/30 07:18:53;;;;;;;6.57;3.88;;;15.00;99.90;;;;;;4863232;29;20076;-82
2022/08/30 07:21:36;;;;;;;4.72;2.90;;;15.00;99.90;;;;;;4863818;29;20056;-83
2022/08/30 07:24:02;;;;;;;4.68;2.70;;;15.10;99.90;;;;;;4863990;29;20040;-84
2022/08/30 07:26:34;;;;;;;5.15;2.28;;;15.20;99.90;;;;;;4863246;29;20100;-75
2022/08/30 07:29:01;;;;;;;3.75;2.20;;;15.30;99.90;;;;;;4880146;29;20446;-83
2022/08/30 07:31:28;;;;;;;5.60;2.90;;;15.30;99.90;;;;;;4878605;29;20047;-82
2022/08/30 07:33:54;;;;;;;4.85;2.28;;;15.40;99.90;;;;;;4863158;29;20049;-81
2022/08/30 07:36:21;;;;;;;6.18;2.03;;;15.50;99.90;;;;;;4848097;29;20493;-82
2022/08/30 07:38:50;;;;;;;7.00;2.35;;;15.50;99.90;;;;;;4863034;29;20045;-80
2022/08/30 07:41:28;;;;;;;3.53;1.85;;;15.60;99.90;;;;;;4879892;29;20048;-82
2022/08/30 07:43:54;;;;;;;3.35;1.70;;;15.80;99.90;;;;;;4863755;29;20037;-82
2022/08/30 07:46:20;;;;;;;4.45;1.98;;;15.80;99.90;;;;;;4879596;29;20120;-82
2022/08/30 07:48:46;;;;;;;4.93;1.95;;;16.00;99.90;;;;;;4863273;29;20084;-82
2022/08/30 07:51:15;;;;;;;5.28;1.60;;;16.00;99.90;;;;;;4863668;29;20092;-83
2022/08/30 07:53:41;;;;;;;11.90;2.25;;;16.20;99.90;;;;;;4879937;29;20097;-83
2022/08/30 07:56:07;;;;;;;5.13;1.70;;;16.20;99.90;;;;;;4862987;29;20053;-83
2022/08/30 07:58:32;;;;;;;5.38;1.38;;;16.30;99.90;;;;;;4862897;29;20120;-82
2022/08/30 08:01:00;;;;;;;3.10;1.52;;;16.40;99.90;;;;;;4862781;29;20045;-82
2022/08/30 08:03:27;;;;;;;7.00;1.60;;;16.50;99.90;;;;;;4879746;29;20390;-84
2022/08/30 08:05:53;;;;;;;3.67;1.60;;;16.60;99.90;;;;;;4862708;29;20045;-83
2022/08/30 08:08:19;;;;;;;5.72;1.70;;;16.60;99.90;;;;;;4879601;29;20045;-82
2022/08/30 08:10:45;;;;;;;6.22;1.45;;;16.70;99.90;;;;;;4863706;29;20060;-81
2022/08/30 08:13:11;;;;;;;5.22;1.50;;;16.80;99.90;;;;;;4866174;29;20076;-80
2022/08/30 08:15:37;;;;;;;8.55;2.03;;;17.00;99.90;;;;;;4883058;29;20044;-82
2022/08/30 08:18:03;;;;;;;9.80;1.98;;;17.10;99.90;;;;;;4882756;29;20532;-82
2022/08/30 08:20:29;;;;;;;6.95;1.42;;;17.20;99.90;;;;;;4882759;29;20045;-84
2022/08/30 08:22:55;;;;;;;3.78;1.65;;;17.30;99.90;;;;;;4866147;29;20056;-83
2022/08/30 08:25:22;;;;;;;3.95;1.63;;;17.40;99.90;;;;;;4865989;29;20045;-83
2022/08/30 08:27:49;;;;;;;3.63;1.35;;;17.40;99.90;;;;;;4866131;29;20056;-82
2022/08/30 08:30:20;;;;;;;7.07;1.65;;;17.50;99.90;;;;;;4866475;29;20048;-83
2022/08/30 08:32:46;;;;;;;4.13;1.45;;;17.70;99.90;;;;;;4866098;29;20439;-84
2022/08/30 08:35:13;;;;;;;4.07;1.40;;;17.70;99.90;;;;;;4865999;29;20049;-84
2022/08/30 08:37:39;;;;;;;7.45;1.60;;;17.80;99.90;;;;;;4882717;29;20048;-83
2022/08/30 08:40:06;;;;;;;17.55;2.33;;;17.90;99.90;;;;;;4865638;29;20430;-74
2022/08/30 08:42:56;;;;;;;3.92;1.40;;;18.00;99.90;;;;;;4882162;29;20044;-83
2022/08/30 08:46:00;;;;;;;5.07;1.45;;;18.10;99.90;;;;;;4866603;29;20377;-84
2022/08/30 08:48:37;;;;;;;5.28;1.48;;;18.20;99.90;;;;;;4882668;29;20051;-86
2022/08/30 08:53:58;;;;;;;4.30;1.50;;;18.30;99.90;;;;;;4882579;29;20398;-83
2022/08/30 08:56:24;;;;;;;5.65;1.40;;;18.40;99.90;;;;;;4865417;29;20053;-83
2022/08/30 08:58:56;;;;;;;3.03;1.48;;;18.60;99.90;;;;;;4865544;29;20052;-83
2022/08/30 09:01:26;;;;;;;2.42;1.20;;;18.70;99.90;;;;;;4865021;29;20048;-83
2022/08/30 09:03:52;;;;;;;4.78;1.40;;;18.80;99.90;;;;;;4865597;29;20499;-84
2022/08/30 09:06:42;;;;;;;3.42;1.50;;;19.00;99.90;;;;;;4850132;29;20045;-84
2022/08/30 09:09:08;;;;;;;3.70;1.25;;;19.10;99.90;;;;;;4880942;29;20049;-84
2022/08/30 09:11:36;;;;;;;3.67;1.20;;;19.30;99.90;;;;;;4881959;29;20049;-84
2022/08/30 09:14:09;;;;;;;4.07;1.20;;;19.40;99.90;;;;;;4865309;29;20052;-83
2022/08/30 09:17:03;;;;;;;2.83;1.23;;;19.50;99.90;;;;;;4865519;29;20197;-79
2022/08/30 09:19:37;;;;;;;3.20;1.45;;;19.70;99.90;;;;;;4865166;29;20053;-86
2022/08/30 09:22:30;;;;;;;4.85;1.30;;;19.80;99.90;;;;;;4864320;29;20048;-83
2022/08/30 09:25:21;;;;;;;3.50;1.45;;;19.90;99.90;;;;;;4865240;29;20037;-83
2022/08/30 09:27:48;;;;;;;3.38;1.58;;;20.00;99.90;;;;;;4865112;29;20150;-83
2022/08/30 09:30:27;;;;;;;2.40;1.27;;;20.10;99.90;;;;;;4849582;29;20053;-83
2022/08/30 09:32:59;;;;;;;4.22;1.20;;;20.20;99.90;;;;;;4881789;29;20375;-84
2022/08/30 09:35:47;;;;;;;4.30;1.30;;;20.20;99.90;;;;;;4864895;29;20057;-83
2022/08/30 09:38:19;;;;;;;6.15;1.20;;;20.30;99.90;;;;;;4881716;29;20128;-84
2022/08/30 09:40:51;;;;;;;3.67;1.30;;;20.30;99.90;;;;;;4864676;29;20516;-84
2022/08/30 09:43:16;;;;;;;3.88;1.20;;;20.30;99.90;;;;;;4881727;29;20409;-86
2022/08/30 09:45:48;;;;;;;3.83;1.20;;;20.10;99.90;;;;;;4865620;29;20127;-84
2022/08/30 09:48:32;;;;;;;3.05;1.20;;;20.10;99.90;;;;;;4880482;29;20044;-84
2022/08/30 09:51:10;;;;;;;4.13;1.15;;;20.20;99.90;;;;;;4881777;29;20098;-85
2022/08/30 09:54:14;;;;;;;4.25;1.90;;;20.50;99.90;;;;;;4866064;29;20378;-83
2022/08/30 09:56:55;;;;;;;4.57;1.30;;;20.70;99.90;;;;;;4862723;29;20513;-86
2022/08/30 09:59:39;;;;;;;2.92;1.30;;;20.90;99.90;;;;;;4881365;29;20486;-84
2022/08/30 10:02:20;;;;;;;3.42;1.10;;;21.10;99.90;;;;;;4880921;29;20437;-83
2022/08/30 10:04:57;;;;;;;2.70;1.20;;;21.10;99.90;;;;;;4864781;29;20404;-84
2022/08/30 10:07:27;;;;;;;3.42;1.30;;;21.20;99.90;;;;;;4864568;29;20501;-85
2022/08/30 10:10:18;;;;;;;3.78;1.15;;;21.20;99.90;;;;;;4881297;29;20408;-85
2022/08/30 10:13:04;;;;;;;4.03;1.20;;;21.30;99.90;;;;;;4862949;29;20061;-86
2022/08/30 10:15:53;;;;;;;4.22;1.10;;;21.40;99.90;;;;;;4881067;29;20037;-83
2022/08/30 10:18:33;;;;;;;5.10;1.42;;;21.50;99.90;;;;;;4864124;29;20123;-85
2022/08/30 10:21:27;;;;;;;3.22;1.35;;;21.60;99.90;;;;;;4864251;29;20506;-84
2022/08/30 10:24:00;;;;;;;2.80;1.25;;;21.80;99.90;;;;;;4864116;29;20048;-84
2022/08/30 10:26:42;;;;;;;4.65;1.17;;;21.90;99.90;;;;;;4890986;29;20051;-84
2022/08/30 10:29:15;;;;;;;2.78;1.25;;;22.10;99.90;;;;;;4882327;29;20060;-83
2022/08/30 10:31:52;;;;;;;2.58;1.00;;;22.20;99.90;;;;;;4882705;29;20119;-85
2022/08/30 10:34:34;;;;;;;2.88;1.30;;;22.30;99.90;;;;;;4898981;29;20444;-84
2022/08/30 10:37:05;;;;;;;3.58;1.10;;;22.40;99.90;;;;;;4899303;29;20048;-84
2022/08/30 10:39:41;;;;;;;3.22;1.10;;;22.50;99.90;;;;;;4881996;29;20045;-85
2022/08/30 10:42:29;;;;;;;2.22;1.05;;;22.60;99.90;;;;;;4882601;29;20044;-84
2022/08/30 10:45:03;;;;;;;8.90;1.35;;;22.70;99.90;;;;;;4898421;29;20583;-84
2022/08/30 10:47:43;;;;;;;2.45;1.08;;;22.70;99.90;;;;;;4866830;29;20503;-84
2022/08/30 10:50:20;;;;;;;2.80;1.08;;;22.80;99.90;;;;;;4882494;29;20047;-84
2022/08/30 10:53:14;;;;;;;2.47;0.82;;;23.00;99.90;;;;;;4883581;29;20049;-84
2022/08/30 10:55:55;;;;;;;3.80;1.30;;;23.00;99.90;;;;;;4881118;29;20519;-85
2022/08/30 10:58:22;;;;;;;5.47;1.52;;;23.10;99.90;;;;;;4882148;29;20044;-85
2022/08/30 11:01:09;;;;;;;2.40;1.25;;;23.20;99.90;;;;;;4881551;29;20056;-85
2022/08/30 11:03:45;;;;;;;3.92;1.10;;;23.20;99.70;;;;;;4866556;29;20048;-84
2022/08/30 11:06:35;;;;;;;2.38;0.98;;;23.30;99.90;;;;;;4898577;29;20128;-84
2022/08/30 11:09:10;;;;;;;3.13;1.02;;;23.40;99.60;;;;;;4881704;29;20058;-87
2022/08/30 11:11:57;;;;;;;1.92;1.10;;;23.40;99.90;;;;;;4881728;29;20057;-87
2022/08/30 11:14:23;;;;;;;3.63;1.30;;;23.50;99.90;;;;;;4866535;29;20048;-85
2022/08/30 11:16:52;;;;;;;1.95;1.00;;;23.50;99.50;;;;;;4883261;29;20072;-85
2022/08/30 11:19:48;;;;;;;2.42;1.00;;;23.60;99.20;;;;;;4867225;29;20109;-87
2022/08/30 11:22:23;;;;;;;4.47;1.40;;;23.60;98.50;;;;;;4854607;29;20490;-83
2022/08/30 11:25:07;;;;;;;3.28;1.00;;;23.70;98.70;;;;;;4881686;29;20058;-85
2022/08/30 11:27:50;;;;;;;3.10;0.90;;;23.80;98.40;;;;;;4898473;29;20056;-85
2022/08/30 11:30:25;;;;;;;3.30;1.02;;;23.90;96.60;;;;;;4898368;29;20048;-84
2022/08/30 11:33:24;;;;;;;6.53;1.20;;;24.00;95.70;;;;;;4881412;29;20056;-83
2022/08/30 11:35:52;;;;;;;2.83;1.10;;;24.10;96.10;;;;;;4898029;29;20045;-83
2022/08/30 11:38:24;;;;;;;3.65;1.00;;;24.20;94.90;;;;;;4881190;29;20044;-83
2022/08/30 11:40:57;;;;;;;3.28;1.00;;;24.20;94.40;;;;;;4865674;29;20049;-83
2022/08/30 11:43:35;;;;;;;5.07;1.00;;;24.30;93.80;;;;;;4898086;29;20049;-82
2022/08/30 11:46:24;;;;;;;3.88;1.00;;;24.30;94.60;;;;;;4883972;29;20052;-82
2022/08/30 11:49:12;;;;;;;3.22;1.25;;;24.50;94.60;;;;;;4885322;29;20437;-83
2022/08/30 11:51:56;;;;;;;4.85;1.10;;;24.50;94.00;;;;;;4885173;29;20124;-82
2022/08/30 11:54:30;;;;;;;3.95;0.90;;;24.50;92.50;;;;;;4885006;29;20128;-83
2022/08/30 11:57:22;;;;;;;1.80;0.85;;;24.60;92.40;;;;;;4885199;29;20453;-83
2022/08/30 12:00:04;;;;;;;2.08;0.90;;;24.60;92.20;;;;;;4885409;29;20080;-83
2022/08/30 12:02:48;;;;;;;4.28;1.10;;;24.70;91.00;;;;;;4869154;29;20037;-84
2022/08/30 12:05:39;;;;;;;2.33;0.98;;;24.80;91.70;;;;;;4901496;29;20044;-84
2022/08/30 12:08:17;;;;;;;2.22;0.93;;;24.90;91.30;;;;;;4884717;29;20489;-83
2022/08/30 12:10:53;;;;;;;2.38;0.90;;;24.90;91.30;;;;;;4869096;29;20051;-84
2022/08/30 12:13:42;;;;;;;4.55;1.10;;;25.10;90.70;;;;;;4884647;29;20136;-85
2022/08/30 12:16:15;;;;;;;3.95;0.90;;;25.20;91.20;;;;;;4898377;29;20088;-84
2022/08/30 12:18:45;;;;;;;2.97;1.10;;;25.20;90.40;;;;;;4884497;29;20048;-84
2022/08/30 12:21:19;;;;;;;3.78;1.00;;;25.30;90.00;;;;;;4884782;29;20441;-83
2022/08/30 12:23:45;;;;;;;4.97;1.10;;;25.40;89.20;;;;;;4901690;29;20044;-81
2022/08/30 12:26:23;;;;;;;4.47;1.20;;;25.30;87.40;;;;;;4869147;29;20512;-83
2022/08/30 12:29:03;;;;;;;4.05;0.90;;;25.30;87.20;;;;;;4884464;29;20040;-84
2022/08/30 12:31:29;;;;;;;2.60;1.08;;;25.40;88.00;;;;;;4884694;29;20037;-85
2022/08/30 12:34:01;;;;;;;2.13;0.90;;;25.50;87.00;;;;;;4868990;29;20048;-84
2022/08/30 12:36:33;;;;;;;2.10;0.80;;;25.50;86.20;;;;;;4883585;29;20131;-83
2022/08/30 12:39:10;;;;;;;2.03;0.80;;;25.50;84.80;;;;;;4867906;29;20071;-84
2022/08/30 12:41:36;;;;;;;3.20;0.88;;;25.60;83.80;;;;;;4883318;29;20051;-84
2022/08/30 12:44:05;;;;;;;4.30;1.00;;;25.70;84.70;;;;;;4883379;29;20127;-84
2022/08/30 12:46:32;;;;;;;2.45;1.00;;;25.70;84.80;;;;;;4900461;29;20116;-86
2022/08/30 12:48:58;;;;;;;4.47;1.23;;;25.70;83.40;;;;;;4883272;29;20517;-85
2022/08/30 12:51:35;;;;;;;3.58;1.02;;;25.80;83.00;;;;;;4883920;29;20087;-83
2022/08/30 12:54:29;;;;;;;2.05;0.90;;;25.80;82.40;;;;;;4883896;29;20052;-84
2022/08/30 12:56:59;;;;;;;3.20;0.90;;;25.80;83.50;;;;;;4882739;29;20064;-85
2022/08/30 12:59:37;;;;;;;3.30;0.90;;;25.80;82.50;;;;;;4883662;29;20048;-86
2022/08/30 13:02:24;;;;;;;1.92;1.00;;;25.80;81.40;;;;;;4900485;29;20048;-85
2022/08/30 13:04:52;;;;;;;2.55;0.80;;;25.90;81.80;;;;;;4900771;29;20048;-85
2022/08/30 13:07:27;;;;;;;4.85;1.10;;;26.00;81.00;;;;;;4900919;29;20561;-86
2022/08/30 13:10:08;;;;;;;;;;;26.00;79.60;;;;;;4901196;29;20044;-84
2022/08/30 13:12:37;;;;;;;6.53;1.00;;;26.00;80.50;;;;;;4900650;29;19926;-84
2022/08/30 13:15:26;;;;;;;2.42;0.90;;;26.00;78.30;;;;;;4883542;29;20056;-85
2022/08/30 13:18:15;;;;;;;2.22;1.38;;;26.10;76.80;;;;;;4883806;29;20052;-85
2022/08/30 13:20:40;;;;;;;2.28;0.90;;;26.20;75.70;;;;;;4900457;29;20055;-85
2022/08/30 13:23:08;;;;;;;5.05;0.98;;;26.10;74.80;;;;;;4900548;29;20037;-86
2022/08/30 13:25:36;;;;;;;2.67;1.00;;;26.10;75.80;;;;;;4900567;29;20033;-83
2022/08/30 13:28:04;;;;;;;3.00;1.15;;;26.20;75.50;;;;;;4868022;29;20092;-85
2022/08/30 13:30:30;;;;;;;3.28;0.90;;;26.20;75.00;;;;;;4867967;29;20485;-86
2022/08/30 13:32:56;;;;;;;2.95;0.90;;;26.20;75.50;;;;;;4883324;29;20100;-83
2022/08/30 13:35:22;;;;;;;2.65;0.80;;;26.20;75.80;;;;;;4899903;29;20533;-86
2022/08/30 13:37:48;;;;;;;2.67;0.90;;;26.30;76.40;;;;;;4900364;29;20127;-84
2022/08/30 13:40:16;;;;;;;1.98;0.90;;;26.30;75.90;;;;;;4900207;29;20407;-85
2022/08/30 13:42:42;;;;;;;2.47;0.95;;;26.30;76.40;;;;;;4883531;29;20394;-85
2022/08/30 13:45:09;;;;;;;4.97;1.35;;;26.30;76.80;;;;;;4900313;29;20051;-85
2022/08/30 13:47:35;;;;;;;4.70;1.00;;;26.30;76.50;;;;;;4882942;29;20041;-85
2022/08/30 13:50:01;;;;;;;4.65;1.00;;;26.40;75.40;;;;;;4900254;29;20128;-86
2022/08/30 13:52:27;;;;;;;2.55;0.88;;;26.40;75.30;;;;;;4900257;29;20123;-85
2022/08/30 13:54:55;;;;;;;4.50;1.00;;;26.50;74.10;;;;;;4867422;29;20468;-83
2022/08/30 13:57:24;;;;;;;4.20;0.90;;;26.60;74.50;;;;;;4900148;29;20051;-85
2022/08/30 14:00:08;;;;;;;3.22;1.00;;;26.60;73.50;;;;;;4883618;29;20122;-86
2022/08/30 14:02:34;;;;;;;2.00;0.83;;;26.60;74.10;;;;;;4899361;29;20048;-83
2022/08/30 14:04:59;;;;;;;3.88;0.90;;;26.60;75.10;;;;;;4883017;29;20036;-86
2022/08/30 14:07:25;;;;;;;4.32;1.30;;;26.60;75.30;;;;;;4899659;29;20045;-85
2022/08/30 14:09:55;;;;;;;2.25;0.73;;;26.60;74.80;;;;;;4883233;29;20100;-84
2022/08/30 14:12:20;;;;;;;3.13;1.20;;;26.70;73.60;;;;;;4883689;29;20091;-82
2022/08/30 14:14:46;;;;;;;3.88;1.15;;;26.70;74.60;;;;;;4870941;29;20044;-83
2022/08/30 14:17:12;;;;;;;2.28;1.02;;;26.70;74.50;;;;;;4902408;29;20044;-82
2022/08/30 14:19:38;;;;;;;3.53;1.00;;;26.70;73.80;;;;;;4885400;29;20077;-83
2022/08/30 14:22:03;;;;;;;6.78;1.27;;;26.70;72.40;;;;;;4882938;29;20107;-84
2022/08/30 14:24:29;;;;;;;3.60;0.90;;;26.70;72.60;;;;;;4868906;29;20053;-82
2022/08/30 14:26:55;;;;;;;2.08;0.85;;;26.70;73.40;;;;;;4900972;29;20029;-84
2022/08/30 14:29:30;;;;;;;5.05;1.20;;;26.80;72.80;;;;;;4900790;29;20064;-82
2022/08/30 14:31:56;;;;;;;;;;;26.70;72.70;;;;;;4884225;29;20366;-84
2022/08/30 14:34:22;;;;;;;3.45;0.90;;;26.40;71.90;;;;;;4882774;29;19930;-86
2022/08/30 14:36:48;;;;;;;1.75;0.80;;;26.30;73.30;;;;;;4883099;29;20052;-85
2022/08/30 14:39:16;;;;;;;3.10;0.90;;;26.40;73.90;;;;;;4883010;29;20485;-84
2022/08/30 14:41:45;;;;;;;4.88;1.10;;;26.30;74.70;;;;;;4899347;29;20048;-85
2022/08/30 14:44:13;;;;;;;2.65;0.77;;;26.10;74.00;;;;;;4882475;29;20052;-84
2022/08/30 14:46:39;;;;;;;4.90;1.10;;;25.90;74.60;;;;;;4882801;29;20055;-85
2022/08/30 14:49:05;;;;;;;4.50;0.90;;;25.80;74.90;;;;;;4899237;29;20048;-84
2022/08/30 14:51:30;;;;;;;3.22;0.80;;;25.80;75.20;;;;;;4882704;29;20047;-82
2022/08/30 14:53:56;;;;;;;2.65;1.00;;;25.90;75.70;;;;;;4898831;29;20040;-85
2022/08/30 14:56:22;;;;;;;2.60;0.98;;;26.00;75.70;;;;;;4899399;29;20049;-84
2022/08/30 14:58:50;;;;;;;3.28;0.90;;;26.10;75.00;;;;;;4866640;29;20504;-85
2022/08/30 15:01:17;;;;;;;2.28;0.82;;;26.10;74.10;;;;;;4899059;29;20088;-84
2022/08/30 15:03:43;;;;;;;4.10;0.88;;;25.90;74.30;;;;;;4866854;29;20103;-85
2022/08/30 15:06:09;;;;;;;1.55;0.70;;;25.80;75.00;;;;;;4882059;29;20127;-85
2022/08/30 15:08:36;;;;;;;2.97;0.80;;;25.90;75.40;;;;;;4898572;29;20442;-85
2022/08/30 15:11:08;;;;;;;4.10;0.82;;;25.90;75.80;;;;;;4898732;29;20048;-84
2022/08/30 15:13:34;;;;;;;2.20;0.70;;;26.00;75.40;;;;;;4866583;29;20485;-85
2022/08/30 15:16:00;;;;;;;3.75;1.00;;;26.00;76.70;;;;;;4882255;29;20059;-85
2022/08/30 15:18:26;;;;;;;2.10;0.80;;;26.00;76.20;;;;;;4881747;29;20494;-86
2022/08/30 15:20:52;;;;;;;1.30;0.73;;;25.70;76.90;;;;;;4881607;29;20154;-85
2022/08/30 15:23:18;;;;;;;3.08;0.75;;;25.60;76.40;;;;;;4882128;29;20104;-85
2022/08/30 15:25:44;;;;;;;4.00;0.70;;;25.40;75.80;;;;;;4882872;29;20045;-85
2022/08/30 15:28:10;;;;;;;2.05;1.00;;;25.20;76.40;;;;;;4898495;29;20036;-86
2022/08/30 15:30:35;;;;;;;1.92;0.60;;;25.00;77.60;;;;;;4899104;29;20041;-85
2022/08/30 15:33:01;;;;;;;2.63;0.95;;;25.10;78.40;;;;;;4899110;29;20100;-83
2022/08/30 15:35:27;;;;;;;2.60;0.80;;;25.20;78.60;;;;;;4898813;29;20041;-85
2022/08/30 15:37:53;;;;;;;4.50;0.75;;;25.30;78.60;;;;;;4882027;29;20088;-82
2022/08/30 15:40:19;;;;;;;2.10;0.95;;;25.40;77.80;;;;;;4881465;29;20136;-86
2022/08/30 15:42:45;;;;;;;5.13;1.00;;;25.50;77.10;;;;;;4881706;29;20489;-85
2022/08/30 15:45:11;;;;;;;3.83;0.82;;;25.30;77.30;;;;;;4866334;29;20037;-85
2022/08/30 15:47:37;;;;;;;2.63;0.80;;;25.10;77.70;;;;;;4866008;29;20048;-86
2022/08/30 15:50:05;;;;;;;2.42;1.23;;;25.10;78.10;;;;;;4898670;29;20124;-84
2022/08/30 15:52:31;;;;;;;3.15;0.80;;;25.10;78.80;;;;;;4898439;29;20045;-86
2022/08/30 15:54:56;;;;;;;3.53;1.05;;;25.00;78.60;;;;;;4898633;29;20524;-85
2022/08/30 15:57:22;;;;;;;2.22;0.85;;;25.10;78.90;;;;;;4881886;29;20112;-85
2022/08/30 15:59:49;;;;;;;1.75;0.80;;;25.20;79.50;;;;;;4881854;29;20048;-86
2022/08/30 16:02:15;;;;;;;2.50;0.88;;;25.20;79.70;;;;;;4897981;29;20037;-85
2022/08/30 16:04:41;;;;;;;1.63;0.75;;;25.40;79.60;;;;;;4898298;29;20389;-86